テルアビブ / ベン・グリオン の空港の天気 - METARとTAF

ベン・グリオン国際空港(テルアビブ) ( LLBG / TLV ) - イスラエル ロード / テルアビブ
飛行場実況気象(Metar)
観測時間09/23 13:50 IDT (09/23 10:50 UTC)
風向・風速北西 5m/s
視程10km以上
天気現象
なし
気温29℃
湿度48%
気圧1015hPa
METARLLBG 231050Z 32010KT 280V350 CAVOK 29/17 Q1015 NOSIG
過去の天気等 Google飛行場航空写真 Wunderground天気予報

過去48時間のMETAR

飛行場予報(TAF)
発表時間: 9/23 08:01 IDT (9/23 05:01 UTC)
予報対象時間: 23日9時 IDT ~ 24日9時 IDT
風向・風速不定 2m/s
視程10km以上
全天の4割程度の雲 雲底高度 1,070m
23日12時 IDT から
風向・風速西北西 5m/s
視程10km以上
少しの雲 雲底高度 1,070m
23日20時 IDT ~ 23日22時 IDT に徐々に
風向・風速不定 2m/s
全天の4割程度の雲 雲底高度 910m
TAF LLBG 230501Z 2306/2406 VRB04KT 9999 SCT035
FM230900 30010KT 9999 FEW035
BECMG 2317/2319 VRB04KT SCT030 TX30/2310Z TN24/2404Z